sensor_id;sensor_type;location;lat;lon;timestamp;temperature;humidity
17887;DHT22;9069;52.044;7.472;2024-03-02T00:01:34;10.20;90.50
17887;DHT22;9069;52.044;7.472;2024-03-02T00:04:04;10.20;90.50
17887;DHT22;9069;52.044;7.472;2024-03-02T00:06:33;10.20;90.60
17887;DHT22;9069;52.044;7.472;2024-03-02T00:09:00;10.20;90.60
17887;DHT22;9069;52.044;7.472;2024-03-02T00:11:29;10.20;90.60
17887;DHT22;9069;52.044;7.472;2024-03-02T00:13:56;10.20;90.50
17887;DHT22;9069;52.044;7.472;2024-03-02T00:16:23;10.10;90.50
17887;DHT22;9069;52.044;7.472;2024-03-02T00:18:50;10.10;90.50
17887;DHT22;9069;52.044;7.472;2024-03-02T00:21:17;10.10;90.50
17887;DHT22;9069;52.044;7.472;2024-03-02T00:23:48;10.10;90.60
17887;DHT22;9069;52.044;7.472;2024-03-02T00:26:18;10.10;90.60
17887;DHT22;9069;52.044;7.472;2024-03-02T00:28:45;10.10;90.70
17887;DHT22;9069;52.044;7.472;2024-03-02T00:31:13;10.10;90.70
17887;DHT22;9069;52.044;7.472;2024-03-02T00:33:43;10.00;90.70
17887;DHT22;9069;52.044;7.472;2024-03-02T00:36:26;10.00;90.90
17887;DHT22;9069;52.044;7.472;2024-03-02T00:38:54;10.00;90.90
17887;DHT22;9069;52.044;7.472;2024-03-02T00:41:29;10.00;90.90
17887;DHT22;9069;52.044;7.472;2024-03-02T00:46:38;10.00;91.20
17887;DHT22;9069;52.044;7.472;2024-03-02T00:49:20;10.00;91.20
17887;DHT22;9069;52.044;7.472;2024-03-02T00:51:48;10.60;91.60
17887;DHT22;9069;52.044;7.472;2024-03-02T00:54:22;9.90;91.30
17887;DHT22;9069;52.044;7.472;2024-03-02T00:56:52;9.90;91.40
17887;DHT22;9069;52.044;7.472;2024-03-02T00:59:19;9.90;91.40
17887;DHT22;9069;52.044;7.472;2024-03-02T01:01:45;9.90;91.50
17887;DHT22;9069;52.044;7.472;2024-03-02T01:04:12;9.90;91.60
17887;DHT22;9069;52.044;7.472;2024-03-02T01:06:42;9.90;91.60
17887;DHT22;9069;52.044;7.472;2024-03-02T01:09:12;9.90;91.80
17887;DHT22;9069;52.044;7.472;2024-03-02T01:11:39;9.90;91.80
17887;DHT22;9069;52.044;7.472;2024-03-02T01:14:06;9.90;91.80
17887;DHT22;9069;52.044;7.472;2024-03-02T01:16:33;9.90;91.80
17887;DHT22;9069;52.044;7.472;2024-03-02T01:19:00;9.90;91.90
17887;DHT22;9069;52.044;7.472;2024-03-02T01:21:28;9.90;91.90
17887;DHT22;9069;52.044;7.472;2024-03-02T01:23:55;10.00;92.00
17887;DHT22;9069;52.044;7.472;2024-03-02T01:26:21;9.90;91.90
17887;DHT22;9069;52.044;7.472;2024-03-02T01:28:48;10.00;91.90
17887;DHT22;9069;52.044;7.472;2024-03-02T01:31:15;10.00;92.00
17887;DHT22;9069;52.044;7.472;2024-03-02T01:33:42;10.00;91.90
17887;DHT22;9069;52.044;7.472;2024-03-02T01:36:09;10.00;91.90
17887;DHT22;9069;52.044;7.472;2024-03-02T01:38:36;10.10;92.00
17887;DHT22;9069;52.044;7.472;2024-03-02T01:41:05;10.00;92.00
17887;DHT22;9069;52.044;7.472;2024-03-02T01:43:33;10.60;92.20
17887;DHT22;9069;52.044;7.472;2024-03-02T01:46:03;10.00;92.00
17887;DHT22;9069;52.044;7.472;2024-03-02T01:48:31;10.00;92.00
17887;DHT22;9069;52.044;7.472;2024-03-02T01:50:58;10.10;92.00
17887;DHT22;9069;52.044;7.472;2024-03-02T01:53:25;10.10;91.90
17887;DHT22;9069;52.044;7.472;2024-03-02T01:55:51;10.10;92.00
17887;DHT22;9069;52.044;7.472;2024-03-02T01:58:18;10.10;91.90
17887;DHT22;9069;52.044;7.472;2024-03-02T02:00:45;10.10;91.90
17887;DHT22;9069;52.044;7.472;2024-03-02T02:03:12;10.10;91.90
17887;DHT22;9069;52.044;7.472;2024-03-02T02:05:42;10.10;91.90
17887;DHT22;9069;52.044;7.472;2024-03-02T02:08:08;10.10;91.90
17887;DHT22;9069;52.044;7.472;2024-03-02T02:10:36;10.10;91.80
17887;DHT22;9069;52.044;7.472;2024-03-02T02:13:03;10.10;91.80
17887;DHT22;9069;52.044;7.472;2024-03-02T02:15:30;10.10;91.70
17887;DHT22;9069;52.044;7.472;2024-03-02T02:17:58;10.10;91.70
17887;DHT22;9069;52.044;7.472;2024-03-02T02:20:26;10.10;91.70
17887;DHT22;9069;52.044;7.472;2024-03-02T02:23:00;10.10;91.70
17887;DHT22;9069;52.044;7.472;2024-03-02T02:25:31;10.10;91.70
17887;DHT22;9069;52.044;7.472;2024-03-02T02:27:57;10.10;91.60
17887;DHT22;9069;52.044;7.472;2024-03-02T02:30:31;10.20;91.70
17887;DHT22;9069;52.044;7.472;2024-03-02T02:32:58;10.20;91.70
17887;DHT22;9069;52.044;7.472;2024-03-02T02:35:27;10.10;91.60
17887;DHT22;9069;52.044;7.472;2024-03-02T02:37:55;10.10;91.60
17887;DHT22;9069;52.044;7.472;2024-03-02T02:40:23;10.10;91.60
17887;DHT22;9069;52.044;7.472;2024-03-02T02:42:50;10.10;91.60
17887;DHT22;9069;52.044;7.472;2024-03-02T02:45:20;10.10;91.60
17887;DHT22;9069;52.044;7.472;2024-03-02T02:47:47;10.10;91.50
17887;DHT22;9069;52.044;7.472;2024-03-02T02:50:15;10.10;91.50
17887;DHT22;9069;52.044;7.472;2024-03-02T02:52:42;10.10;91.50
17887;DHT22;9069;52.044;7.472;2024-03-02T02:55:11;10.10;91.50
17887;DHT22;9069;52.044;7.472;2024-03-02T02:57:42;10.10;91.50
17887;DHT22;9069;52.044;7.472;2024-03-02T03:00:14;10.10;91.50
17887;DHT22;9069;52.044;7.472;2024-03-02T03:02:47;10.10;91.50
17887;DHT22;9069;52.044;7.472;2024-03-02T03:05:17;10.10;91.50
17887;DHT22;9069;52.044;7.472;2024-03-02T03:07:44;10.10;91.50
17887;DHT22;9069;52.044;7.472;2024-03-02T03:10:11;10.00;91.40
17887;DHT22;9069;52.044;7.472;2024-03-02T03:12:39;10.00;91.40
17887;DHT22;9069;52.044;7.472;2024-03-02T03:15:09;10.00;91.40
17887;DHT22;9069;52.044;7.472;2024-03-02T03:17:36;10.00;91.40
17887;DHT22;9069;52.044;7.472;2024-03-02T03:20:04;10.00;91.40
17887;DHT22;9069;52.044;7.472;2024-03-02T03:22:38;10.00;91.30
17887;DHT22;9069;52.044;7.472;2024-03-02T03:25:06;10.00;91.20
17887;DHT22;9069;52.044;7.472;2024-03-02T03:27:35;9.90;91.20
17887;DHT22;9069;52.044;7.472;2024-03-02T03:30:02;9.90;91.10
17887;DHT22;9069;52.044;7.472;2024-03-02T03:32:29;9.90;91.20
17887;DHT22;9069;52.044;7.472;2024-03-02T03:34:56;9.80;91.20
17887;DHT22;9069;52.044;7.472;2024-03-02T03:37:23;9.80;91.20
17887;DHT22;9069;52.044;7.472;2024-03-02T03:39:52;9.80;91.30
17887;DHT22;9069;52.044;7.472;2024-03-02T03:42:19;9.70;91.30
17887;DHT22;9069;52.044;7.472;2024-03-02T03:44:46;9.70;91.30
17887;DHT22;9069;52.044;7.472;2024-03-02T03:47:12;9.70;91.30
17887;DHT22;9069;52.044;7.472;2024-03-02T03:49:39;9.70;91.40
17887;DHT22;9069;52.044;7.472;2024-03-02T03:52:06;9.60;91.50
17887;DHT22;9069;52.044;7.472;2024-03-02T03:54:34;9.60;91.60
17887;DHT22;9069;52.044;7.472;2024-03-02T03:57:04;9.50;91.70
17887;DHT22;9069;52.044;7.472;2024-03-02T03:59:31;9.50;91.70
17887;DHT22;9069;52.044;7.472;2024-03-02T04:01:58;9.50;91.80
17887;DHT22;9069;52.044;7.472;2024-03-02T04:04:24;9.40;91.80
17887;DHT22;9069;52.044;7.472;2024-03-02T04:06:51;9.40;92.00
17887;DHT22;9069;52.044;7.472;2024-03-02T04:09:18;9.40;92.00
17887;DHT22;9069;52.044;7.472;2024-03-02T04:11:45;9.40;92.10
17887;DHT22;9069;52.044;7.472;2024-03-02T04:14:12;9.40;92.20
17887;DHT22;9069;52.044;7.472;2024-03-02T04:16:39;9.40;92.20
17887;DHT22;9069;52.044;7.472;2024-03-02T04:19:06;9.30;92.40
17887;DHT22;9069;52.044;7.472;2024-03-02T04:21:33;9.30;92.80
17887;DHT22;9069;52.044;7.472;2024-03-02T04:23:59;9.30;92.50
17887;DHT22;9069;52.044;7.472;2024-03-02T04:26:28;9.30;92.50
17887;DHT22;9069;52.044;7.472;2024-03-02T04:28:55;9.50;92.70
17887;DHT22;9069;52.044;7.472;2024-03-02T04:31:22;9.40;92.60
17887;DHT22;9069;52.044;7.472;2024-03-02T04:33:48;9.40;92.70
17887;DHT22;9069;52.044;7.472;2024-03-02T04:36:15;9.40;92.70
17887;DHT22;9069;52.044;7.472;2024-03-02T04:38:42;9.40;92.80
17887;DHT22;9069;52.044;7.472;2024-03-02T04:41:09;9.40;92.80
17887;DHT22;9069;52.044;7.472;2024-03-02T04:43:36;9.40;92.70
17887;DHT22;9069;52.044;7.472;2024-03-02T04:46:04;9.40;92.70
17887;DHT22;9069;52.044;7.472;2024-03-02T04:48:31;9.40;92.70
17887;DHT22;9069;52.044;7.472;2024-03-02T04:50:58;9.40;92.70
17887;DHT22;9069;52.044;7.472;2024-03-02T04:53:25;9.40;92.70
17887;DHT22;9069;52.044;7.472;2024-03-02T04:55:52;9.40;92.70
17887;DHT22;9069;52.044;7.472;2024-03-02T04:58:36;9.50;92.70
17887;DHT22;9069;52.044;7.472;2024-03-02T05:01:04;9.50;92.70
17887;DHT22;9069;52.044;7.472;2024-03-02T05:03:31;9.40;92.70
17887;DHT22;9069;52.044;7.472;2024-03-02T05:06:06;9.40;92.70
17887;DHT22;9069;52.044;7.472;2024-03-02T05:08:35;9.40;92.80
17887;DHT22;9069;52.044;7.472;2024-03-02T05:11:02;9.40;92.60
17887;DHT22;9069;52.044;7.472;2024-03-02T05:13:47;9.40;92.60
17887;DHT22;9069;52.044;7.472;2024-03-02T05:16:14;9.40;92.60
17887;DHT22;9069;52.044;7.472;2024-03-02T05:18:41;9.40;92.60
17887;DHT22;9069;52.044;7.472;2024-03-02T05:21:07;9.40;92.60
17887;DHT22;9069;52.044;7.472;2024-03-02T05:23:34;9.40;92.60
17887;DHT22;9069;52.044;7.472;2024-03-02T05:26:01;9.40;92.60
17887;DHT22;9069;52.044;7.472;2024-03-02T05:28:32;9.50;92.60
17887;DHT22;9069;52.044;7.472;2024-03-02T05:30:59;9.40;92.60
17887;DHT22;9069;52.044;7.472;2024-03-02T05:33:29;9.40;92.60
17887;DHT22;9069;52.044;7.472;2024-03-02T05:35:58;9.50;92.60
17887;DHT22;9069;52.044;7.472;2024-03-02T05:38:25;9.50;92.60
17887;DHT22;9069;52.044;7.472;2024-03-02T05:40:52;9.50;92.60
17887;DHT22;9069;52.044;7.472;2024-03-02T05:43:18;9.50;92.60
17887;DHT22;9069;52.044;7.472;2024-03-02T05:45:46;9.50;92.60
17887;DHT22;9069;52.044;7.472;2024-03-02T05:48:13;9.50;92.60
17887;DHT22;9069;52.044;7.472;2024-03-02T05:50:40;9.40;92.50
17887;DHT22;9069;52.044;7.472;2024-03-02T05:53:06;9.50;92.60
17887;DHT22;9069;52.044;7.472;2024-03-02T05:55:35;9.50;92.60
17887;DHT22;9069;52.044;7.472;2024-03-02T05:58:04;9.40;92.50
17887;DHT22;9069;52.044;7.472;2024-03-02T06:00:33;9.50;92.60
17887;DHT22;9069;52.044;7.472;2024-03-02T06:03:00;9.50;92.60
17887;DHT22;9069;52.044;7.472;2024-03-02T06:05:28;9.50;92.60
17887;DHT22;9069;52.044;7.472;2024-03-02T06:07:55;9.50;92.60
17887;DHT22;9069;52.044;7.472;2024-03-02T06:10:22;9.50;92.60
17887;DHT22;9069;52.044;7.472;2024-03-02T06:12:48;9.50;92.60
17887;DHT22;9069;52.044;7.472;2024-03-02T06:15:15;9.50;92.60
17887;DHT22;9069;52.044;7.472;2024-03-02T06:17:43;9.50;92.50
17887;DHT22;9069;52.044;7.472;2024-03-02T06:20:10;9.50;92.50
17887;DHT22;9069;52.044;7.472;2024-03-02T06:22:39;9.50;92.50
17887;DHT22;9069;52.044;7.472;2024-03-02T06:25:06;9.50;92.50
17887;DHT22;9069;52.044;7.472;2024-03-02T06:27:33;9.50;92.50
17887;DHT22;9069;52.044;7.472;2024-03-02T06:30:00;9.50;92.50
17887;DHT22;9069;52.044;7.472;2024-03-02T06:32:26;9.50;92.50
17887;DHT22;9069;52.044;7.472;2024-03-02T06:34:53;9.50;92.50
17887;DHT22;9069;52.044;7.472;2024-03-02T06:37:20;9.60;92.50
17887;DHT22;9069;52.044;7.472;2024-03-02T06:39:47;9.60;92.50
17887;DHT22;9069;52.044;7.472;2024-03-02T06:42:14;9.60;92.50
17887;DHT22;9069;52.044;7.472;2024-03-02T06:44:41;9.60;92.50
17887;DHT22;9069;52.044;7.472;2024-03-02T06:47:07;9.60;92.50
17887;DHT22;9069;52.044;7.472;2024-03-02T06:49:34;9.60;92.50
17887;DHT22;9069;52.044;7.472;2024-03-02T06:52:02;9.60;92.60
17887;DHT22;9069;52.044;7.472;2024-03-02T06:54:28;9.60;92.60
17887;DHT22;9069;52.044;7.472;2024-03-02T06:56:55;9.60;92.60
17887;DHT22;9069;52.044;7.472;2024-03-02T06:59:22;9.60;92.60
17887;DHT22;9069;52.044;7.472;2024-03-02T07:01:49;9.60;92.60
17887;DHT22;9069;52.044;7.472;2024-03-02T07:04:16;9.70;92.60
17887;DHT22;9069;52.044;7.472;2024-03-02T07:06:42;9.70;92.70
17887;DHT22;9069;52.044;7.472;2024-03-02T07:09:09;9.70;92.70
17887;DHT22;9069;52.044;7.472;2024-03-02T07:11:37;9.70;93.30
17887;DHT22;9069;52.044;7.472;2024-03-02T07:14:04;9.80;93.40
17887;DHT22;9069;52.044;7.472;2024-03-02T07:16:31;9.90;93.70
17887;DHT22;9069;52.044;7.472;2024-03-02T07:19:00;10.00;94.00
17887;DHT22;9069;52.044;7.472;2024-03-02T07:21:29;10.20;94.20
17887;DHT22;9069;52.044;7.472;2024-03-02T07:23:56;10.40;94.50
17887;DHT22;9069;52.044;7.472;2024-03-02T07:26:23;10.60;94.50
17887;DHT22;9069;52.044;7.472;2024-03-02T07:28:52;10.90;94.70
17887;DHT22;9069;52.044;7.472;2024-03-02T07:31:19;11.10;94.60
17887;DHT22;9069;52.044;7.472;2024-03-02T07:33:46;11.40;94.60
17887;DHT22;9069;52.044;7.472;2024-03-02T07:36:13;11.70;94.50
17887;DHT22;9069;52.044;7.472;2024-03-02T07:38:40;11.90;94.40
17887;DHT22;9069;52.044;7.472;2024-03-02T07:41:08;12.20;94.10
17887;DHT22;9069;52.044;7.472;2024-03-02T07:43:35;12.50;93.70
17887;DHT22;9069;52.044;7.472;2024-03-02T07:46:04;12.70;93.20
17887;DHT22;9069;52.044;7.472;2024-03-02T07:48:34;12.90;91.90
17887;DHT22;9069;52.044;7.472;2024-03-02T07:51:05;13.10;91.40
17887;DHT22;9069;52.044;7.472;2024-03-02T07:53:33;13.20;90.30
17887;DHT22;9069;52.044;7.472;2024-03-02T07:55:59;13.30;90.10
17887;DHT22;9069;52.044;7.472;2024-03-02T07:58:30;13.30;88.90
17887;DHT22;9069;52.044;7.472;2024-03-02T08:00:57;13.40;88.10
17887;DHT22;9069;52.044;7.472;2024-03-02T08:03:25;13.30;87.30
17887;DHT22;9069;52.044;7.472;2024-03-02T08:05:52;13.30;86.70
17887;DHT22;9069;52.044;7.472;2024-03-02T08:08:19;13.30;86.90
17887;DHT22;9069;52.044;7.472;2024-03-02T08:10:46;13.30;87.70
17887;DHT22;9069;52.044;7.472;2024-03-02T08:13:12;13.30;88.70
17887;DHT22;9069;52.044;7.472;2024-03-02T08:15:40;13.40;89.30
17887;DHT22;9069;52.044;7.472;2024-03-02T08:18:07;13.50;90.00
17887;DHT22;9069;52.044;7.472;2024-03-02T08:20:34;13.70;90.50
17887;DHT22;9069;52.044;7.472;2024-03-02T08:23:00;13.90;90.70
17887;DHT22;9069;52.044;7.472;2024-03-02T08:25:27;14.10;90.50
17887;DHT22;9069;52.044;7.472;2024-03-02T08:27:55;14.30;90.70
17887;DHT22;9069;52.044;7.472;2024-03-02T08:30:22;14.60;90.30
17887;DHT22;9069;52.044;7.472;2024-03-02T08:32:49;14.80;90.30
17887;DHT22;9069;52.044;7.472;2024-03-02T08:35:15;15.10;89.40
17887;DHT22;9069;52.044;7.472;2024-03-02T08:37:43;15.30;87.90
17887;DHT22;9069;52.044;7.472;2024-03-02T08:40:10;15.50;86.70
17887;DHT22;9069;52.044;7.472;2024-03-02T08:42:42;15.80;86.60
17887;DHT22;9069;52.044;7.472;2024-03-02T08:45:09;16.00;86.20
17887;DHT22;9069;52.044;7.472;2024-03-02T08:47:36;16.20;85.30
17887;DHT22;9069;52.044;7.472;2024-03-02T08:50:03;16.40;84.90
17887;DHT22;9069;52.044;7.472;2024-03-02T08:52:32;16.70;84.50
17887;DHT22;9069;52.044;7.472;2024-03-02T08:54:59;16.90;84.30
17887;DHT22;9069;52.044;7.472;2024-03-02T08:57:27;17.20;83.80
17887;DHT22;9069;52.044;7.472;2024-03-02T08:59:54;17.50;82.50
17887;DHT22;9069;52.044;7.472;2024-03-02T09:02:21;17.80;81.70
17887;DHT22;9069;52.044;7.472;2024-03-02T09:04:49;18.00;80.90
17887;DHT22;9069;52.044;7.472;2024-03-02T09:07:16;18.30;79.50
17887;DHT22;9069;52.044;7.472;2024-03-02T09:09:43;18.60;79.10
17887;DHT22;9069;52.044;7.472;2024-03-02T09:12:09;18.80;77.60
17887;DHT22;9069;52.044;7.472;2024-03-02T09:14:37;19.00;76.20
17887;DHT22;9069;52.044;7.472;2024-03-02T09:17:04;19.20;75.60
17887;DHT22;9069;52.044;7.472;2024-03-02T09:19:31;19.40;75.20
17887;DHT22;9069;52.044;7.472;2024-03-02T09:21:58;19.60;74.40
17887;DHT22;9069;52.044;7.472;2024-03-02T09:24:27;19.70;73.70
17887;DHT22;9069;52.044;7.472;2024-03-02T09:26:54;19.90;73.30
17887;DHT22;9069;52.044;7.472;2024-03-02T09:29:20;20.10;72.60
17887;DHT22;9069;52.044;7.472;2024-03-02T09:31:47;20.20;72.30
17887;DHT22;9069;52.044;7.472;2024-03-02T09:34:16;20.40;72.00
17887;DHT22;9069;52.044;7.472;2024-03-02T09:36:43;20.50;71.30
17887;DHT22;9069;52.044;7.472;2024-03-02T09:39:10;20.70;71.20
17887;DHT22;9069;52.044;7.472;2024-03-02T09:41:38;20.80;70.90
17887;DHT22;9069;52.044;7.472;2024-03-02T09:44:05;21.00;70.20
17887;DHT22;9069;52.044;7.472;2024-03-02T09:46:32;21.20;69.70
17887;DHT22;9069;52.044;7.472;2024-03-02T09:48:59;21.30;69.80
17887;DHT22;9069;52.044;7.472;2024-03-02T09:51:27;21.40;69.50
17887;DHT22;9069;52.044;7.472;2024-03-02T09:53:55;21.60;69.50
17887;DHT22;9069;52.044;7.472;2024-03-02T09:56:39;21.80;68.80
17887;DHT22;9069;52.044;7.472;2024-03-02T09:59:06;22.10;69.00
17887;DHT22;9069;52.044;7.472;2024-03-02T10:01:32;22.20;68.40
17887;DHT22;9069;52.044;7.472;2024-03-02T10:04:00;22.40;67.90
17887;DHT22;9069;52.044;7.472;2024-03-02T10:06:28;22.60;67.60
17887;DHT22;9069;52.044;7.472;2024-03-02T10:08:56;22.80;67.10
17887;DHT22;9069;52.044;7.472;2024-03-02T10:11:34;23.00;66.60
17887;DHT22;9069;52.044;7.472;2024-03-02T10:14:11;23.20;64.70
17887;DHT22;9069;52.044;7.472;2024-03-02T10:16:39;23.40;63.70
17887;DHT22;9069;52.044;7.472;2024-03-02T10:21:50;23.80;62.20
17887;DHT22;9069;52.044;7.472;2024-03-02T10:24:18;24.00;63.80
17887;DHT22;9069;52.044;7.472;2024-03-02T10:26:45;24.20;63.10
17887;DHT22;9069;52.044;7.472;2024-03-02T10:29:12;24.40;62.20
17887;DHT22;9069;52.044;7.472;2024-03-02T10:31:41;24.50;61.00
17887;DHT22;9069;52.044;7.472;2024-03-02T10:34:09;24.50;60.20
17887;DHT22;9069;52.044;7.472;2024-03-02T10:36:37;24.60;59.80
17887;DHT22;9069;52.044;7.472;2024-03-02T10:39:05;24.50;59.20
17887;DHT22;9069;52.044;7.472;2024-03-02T10:41:36;24.50;58.50
17887;DHT22;9069;52.044;7.472;2024-03-02T10:44:07;24.40;58.20
17887;DHT22;9069;52.044;7.472;2024-03-02T10:46:35;24.30;57.90
17887;DHT22;9069;52.044;7.472;2024-03-02T10:49:05;24.20;57.30
17887;DHT22;9069;52.044;7.472;2024-03-02T10:51:35;24.00;57.10
17887;DHT22;9069;52.044;7.472;2024-03-02T10:54:04;23.90;56.90
17887;DHT22;9069;52.044;7.472;2024-03-02T10:56:42;23.70;56.70
17887;DHT22;9069;52.044;7.472;2024-03-02T10:59:27;23.40;55.50
17887;DHT22;9069;52.044;7.472;2024-03-02T11:01:58;23.30;55.80
17887;DHT22;9069;52.044;7.472;2024-03-02T11:04:31;23.10;56.90
17887;DHT22;9069;52.044;7.472;2024-03-02T11:09:28;22.70;57.20
17887;DHT22;9069;52.044;7.472;2024-03-02T11:12:12;22.60;57.60
17887;DHT22;9069;52.044;7.472;2024-03-02T11:14:41;22.40;57.40
17887;DHT22;9069;52.044;7.472;2024-03-02T11:17:14;22.30;57.50
17887;DHT22;9069;52.044;7.472;2024-03-02T11:19:45;22.20;57.50
17887;DHT22;9069;52.044;7.472;2024-03-02T11:22:13;22.00;57.70
17887;DHT22;9069;52.044;7.472;2024-03-02T11:24:48;21.90;57.40
17887;DHT22;9069;52.044;7.472;2024-03-02T11:33:10;21.50;57.10
17887;DHT22;9069;52.044;7.472;2024-03-02T11:35:43;21.40;57.80
17887;DHT22;9069;52.044;7.472;2024-03-02T11:38:14;21.30;58.10
17887;DHT22;9069;52.044;7.472;2024-03-02T11:40:41;21.20;58.60
17887;DHT22;9069;52.044;7.472;2024-03-02T11:43:09;21.10;58.70
17887;DHT22;9069;52.044;7.472;2024-03-02T11:45:37;21.00;58.60
17887;DHT22;9069;52.044;7.472;2024-03-02T11:48:12;20.90;58.40
17887;DHT22;9069;52.044;7.472;2024-03-02T11:50:43;20.90;58.00
17887;DHT22;9069;52.044;7.472;2024-03-02T11:53:12;20.80;58.10
17887;DHT22;9069;52.044;7.472;2024-03-02T11:55:40;20.70;58.10
17887;DHT22;9069;52.044;7.472;2024-03-02T11:58:07;20.60;58.20
17887;DHT22;9069;52.044;7.472;2024-03-02T12:00:34;20.50;58.10
17887;DHT22;9069;52.044;7.472;2024-03-02T12:05:31;20.30;58.30
17887;DHT22;9069;52.044;7.472;2024-03-02T12:08:00;20.30;58.70
17887;DHT22;9069;52.044;7.472;2024-03-02T12:10:27;20.20;58.90
17887;DHT22;9069;52.044;7.472;2024-03-02T12:13:02;20.20;59.10
17887;DHT22;9069;52.044;7.472;2024-03-02T12:15:31;20.10;58.40
17887;DHT22;9069;52.044;7.472;2024-03-02T12:18:01;20.00;58.80
17887;DHT22;9069;52.044;7.472;2024-03-02T12:20:30;20.00;58.90
17887;DHT22;9069;52.044;7.472;2024-03-02T12:23:04;19.90;59.10
17887;DHT22;9069;52.044;7.472;2024-03-02T12:25:32;19.90;59.20
17887;DHT22;9069;52.044;7.472;2024-03-02T12:28:00;19.90;59.30
17887;DHT22;9069;52.044;7.472;2024-03-02T12:30:35;19.80;59.10
17887;DHT22;9069;52.044;7.472;2024-03-02T12:33:03;19.70;59.10
17887;DHT22;9069;52.044;7.472;2024-03-02T12:35:31;19.70;59.20
17887;DHT22;9069;52.044;7.472;2024-03-02T12:37:58;19.60;59.30
17887;DHT22;9069;52.044;7.472;2024-03-02T12:40:25;19.50;59.40
17887;DHT22;9069;52.044;7.472;2024-03-02T12:42:52;19.50;59.60
17887;DHT22;9069;52.044;7.472;2024-03-02T12:45:20;19.40;59.70
17887;DHT22;9069;52.044;7.472;2024-03-02T12:47:51;19.30;59.60
17887;DHT22;9069;52.044;7.472;2024-03-02T12:50:18;19.30;59.70
17887;DHT22;9069;52.044;7.472;2024-03-02T12:52:53;19.20;59.90
17887;DHT22;9069;52.044;7.472;2024-03-02T12:55:21;19.20;59.90
17887;DHT22;9069;52.044;7.472;2024-03-02T12:57:52;19.10;60.10
17887;DHT22;9069;52.044;7.472;2024-03-02T13:00:20;19.10;59.90
17887;DHT22;9069;52.044;7.472;2024-03-02T13:02:49;19.10;60.00
17887;DHT22;9069;52.044;7.472;2024-03-02T13:05:17;19.00;60.40
17887;DHT22;9069;52.044;7.472;2024-03-02T13:07:44;19.00;60.70
17887;DHT22;9069;52.044;7.472;2024-03-02T13:10:13;19.00;60.20
17887;DHT22;9069;52.044;7.472;2024-03-02T13:12:41;18.90;60.10
17887;DHT22;9069;52.044;7.472;2024-03-02T13:15:09;18.90;60.00
17887;DHT22;9069;52.044;7.472;2024-03-02T13:17:38;18.90;59.90
17887;DHT22;9069;52.044;7.472;2024-03-02T13:20:06;18.80;60.10
17887;DHT22;9069;52.044;7.472;2024-03-02T13:22:37;18.80;60.20
17887;DHT22;9069;52.044;7.472;2024-03-02T13:25:04;18.80;60.20
17887;DHT22;9069;52.044;7.472;2024-03-02T13:27:32;18.70;60.30
17887;DHT22;9069;52.044;7.472;2024-03-02T13:29:59;18.70;60.40
17887;DHT22;9069;52.044;7.472;2024-03-02T13:32:27;18.70;60.30
17887;DHT22;9069;52.044;7.472;2024-03-02T13:34:54;18.70;60.50
17887;DHT22;9069;52.044;7.472;2024-03-02T13:37:21;18.60;60.50
17887;DHT22;9069;52.044;7.472;2024-03-02T13:39:48;18.60;60.30
17887;DHT22;9069;52.044;7.472;2024-03-02T13:42:15;18.60;60.60
17887;DHT22;9069;52.044;7.472;2024-03-02T13:44:46;18.60;60.60
17887;DHT22;9069;52.044;7.472;2024-03-02T13:47:15;18.50;60.10
17887;DHT22;9069;52.044;7.472;2024-03-02T13:49:41;18.50;60.50
17887;DHT22;9069;52.044;7.472;2024-03-02T13:52:13;18.40;60.70
17887;DHT22;9069;52.044;7.472;2024-03-02T13:54:41;18.40;60.80
17887;DHT22;9069;52.044;7.472;2024-03-02T13:57:09;18.40;61.10
17887;DHT22;9069;52.044;7.472;2024-03-02T13:59:37;18.30;61.20
17887;DHT22;9069;52.044;7.472;2024-03-02T14:02:05;18.30;61.20
17887;DHT22;9069;52.044;7.472;2024-03-02T14:04:36;18.30;61.10
17887;DHT22;9069;52.044;7.472;2024-03-02T14:07:04;18.20;61.20
17887;DHT22;9069;52.044;7.472;2024-03-02T14:09:35;18.30;61.50
17887;DHT22;9069;52.044;7.472;2024-03-02T14:12:04;18.20;61.50
17887;DHT22;9069;52.044;7.472;2024-03-02T14:14:31;18.20;61.20
17887;DHT22;9069;52.044;7.472;2024-03-02T14:16:58;18.10;60.90
17887;DHT22;9069;52.044;7.472;2024-03-02T14:19:30;18.10;61.10
17887;DHT22;9069;52.044;7.472;2024-03-02T14:21:57;18.00;61.30
17887;DHT22;9069;52.044;7.472;2024-03-02T14:24:24;18.00;61.70
17887;DHT22;9069;52.044;7.472;2024-03-02T14:26:52;18.00;61.90
17887;DHT22;9069;52.044;7.472;2024-03-02T14:29:28;18.00;61.80
17887;DHT22;9069;52.044;7.472;2024-03-02T14:31:55;18.00;61.90
17887;DHT22;9069;52.044;7.472;2024-03-02T14:34:22;17.90;61.80
17887;DHT22;9069;52.044;7.472;2024-03-02T14:36:49;17.90;62.10
17887;DHT22;9069;52.044;7.472;2024-03-02T14:39:16;17.90;62.20
17887;DHT22;9069;52.044;7.472;2024-03-02T14:41:45;17.90;62.00
17887;DHT22;9069;52.044;7.472;2024-03-02T14:44:12;17.90;62.40
17887;DHT22;9069;52.044;7.472;2024-03-02T14:46:38;17.80;62.00
17887;DHT22;9069;52.044;7.472;2024-03-02T14:49:08;17.80;62.00
17887;DHT22;9069;52.044;7.472;2024-03-02T14:51:35;17.80;62.00
17887;DHT22;9069;52.044;7.472;2024-03-02T14:54:01;17.80;62.20
17887;DHT22;9069;52.044;7.472;2024-03-02T14:56:29;17.70;62.50
17887;DHT22;9069;52.044;7.472;2024-03-02T14:58:56;17.70;62.60
17887;DHT22;9069;52.044;7.472;2024-03-02T15:01:23;17.80;62.70
17887;DHT22;9069;52.044;7.472;2024-03-02T15:03:52;17.60;62.60
17887;DHT22;9069;52.044;7.472;2024-03-02T15:06:19;17.60;62.40
17887;DHT22;9069;52.044;7.472;2024-03-02T15:08:45;17.60;62.30
17887;DHT22;9069;52.044;7.472;2024-03-02T15:11:15;17.60;62.60
17887;DHT22;9069;52.044;7.472;2024-03-02T15:13:42;17.60;62.90
17887;DHT22;9069;52.044;7.472;2024-03-02T15:16:09;17.50;63.10
17887;DHT22;9069;52.044;7.472;2024-03-02T15:18:36;17.50;63.10
17887;DHT22;9069;52.044;7.472;2024-03-02T15:21:03;17.60;63.50
17887;DHT22;9069;52.044;7.472;2024-03-02T15:23:30;17.60;63.60
17887;DHT22;9069;52.044;7.472;2024-03-02T15:25:57;17.60;63.80
17887;DHT22;9069;52.044;7.472;2024-03-02T15:28:24;17.60;63.70
17887;DHT22;9069;52.044;7.472;2024-03-02T15:30:50;17.60;63.60
17887;DHT22;9069;52.044;7.472;2024-03-02T15:33:22;17.70;63.50
17887;DHT22;9069;52.044;7.472;2024-03-02T15:35:53;17.70;63.10
17887;DHT22;9069;52.044;7.472;2024-03-02T15:38:22;17.70;63.00
17887;DHT22;9069;52.044;7.472;2024-03-02T15:41:00;17.70;63.30
17887;DHT22;9069;52.044;7.472;2024-03-02T15:43:31;17.70;63.30
17887;DHT22;9069;52.044;7.472;2024-03-02T15:45:58;17.70;63.10
17887;DHT22;9069;52.044;7.472;2024-03-02T15:48:28;17.70;63.30
17887;DHT22;9069;52.044;7.472;2024-03-02T15:50:55;17.70;63.30
17887;DHT22;9069;52.044;7.472;2024-03-02T15:53:23;17.70;63.30
17887;DHT22;9069;52.044;7.472;2024-03-02T15:55:50;17.70;63.50
17887;DHT22;9069;52.044;7.472;2024-03-02T15:58:17;17.70;63.50
17887;DHT22;9069;52.044;7.472;2024-03-02T16:00:44;17.70;63.20
17887;DHT22;9069;52.044;7.472;2024-03-02T16:03:11;17.60;62.70
17887;DHT22;9069;52.044;7.472;2024-03-02T16:05:38;17.60;62.70
17887;DHT22;9069;52.044;7.472;2024-03-02T16:08:05;17.60;62.60
17887;DHT22;9069;52.044;7.472;2024-03-02T16:10:32;17.60;62.50
17887;DHT22;9069;52.044;7.472;2024-03-02T16:12:59;17.50;62.50